Time;durP1;ratioP1;P1;durP2;ratioP2;P2;SDS_P1;SDS_P2;PMS_P1;PMS_P2;Temp;Humidity;BMP_temperature;BMP_pressure;BME280_temperature;BME280_humidity;BME280_pressure;Samples;Min_cycle;Max_cycle;Signal;HPM_P1;HPM_P2
2023/04/16 00:01:55;;;;;;;5.97;3.13;;;;;;;9.03;nan;100035.94;5082080;28;20124;-68
2023/04/16 00:04:21;;;;;;;4.80;3.13;;;;;;;9.01;nan;100037.97;5089883;28;20028;-65
2023/04/16 00:06:46;;;;;;;6.90;3.60;;;;;;;9.02;nan;100045.63;5092940;28;20092;-66
2023/04/16 00:09:11;;;;;;;5.60;3.05;;;;;;;9.01;nan;100046.66;5096305;28;20036;-66
2023/04/16 00:11:39;;;;;;;7.03;3.20;;;;;;;9.01;nan;100038.78;5091899;27;20028;-65
2023/04/16 00:14:04;;;;;;;9.10;3.30;;;;;;;8.99;nan;100035.56;5092100;28;20039;-68
2023/04/16 00:16:32;;;;;;;5.03;2.90;;;;;;;8.97;nan;100027.09;5094846;28;20031;-65
2023/04/16 00:18:58;;;;;;;5.43;3.00;;;;;;;9.08;nan;100049.19;5094292;28;20035;-67
2023/04/16 00:21:23;;;;;;;5.95;3.38;;;;;;;9.00;nan;100039.00;5097298;27;20028;-68
2023/04/16 00:23:49;;;;;;;6.15;3.30;;;;;;;9.05;nan;100050.44;5094574;28;20070;-65
2023/04/16 00:26:15;;;;;;;5.07;3.30;;;;;;;9.04;nan;100038.31;5093273;28;20467;-65
2023/04/16 00:28:40;;;;;;;4.95;3.15;;;;;;;8.98;nan;100028.72;5092188;28;20036;-68
2023/04/16 00:31:06;;;;;;;5.88;3.20;;;;;;;8.99;nan;100034.78;5093561;28;20030;-66
2023/04/16 00:33:32;;;;;;;4.40;3.03;;;;;;;9.06;nan;100046.78;5096135;28;20028;-64
2023/04/16 00:35:58;;;;;;;6.32;3.35;;;;;;;8.91;nan;100022.75;5091979;28;20081;-65
2023/04/16 00:38:23;;;;;;;6.28;3.63;;;;;;;8.94;nan;100032.81;5089301;28;20059;-69
2023/04/16 00:40:49;;;;;;;5.22;3.50;;;;;;;9.00;nan;100042.41;5093916;28;20031;-68
2023/04/16 00:43:25;;;;;;;7.55;3.83;;;;;;;9.01;nan;100044.03;5091804;27;20579;-69
2023/04/16 00:45:52;;;;;;;5.30;3.25;;;;;;;9.00;nan;100039.00;5092918;28;20035;-68
2023/04/16 00:48:19;;;;;;;7.97;3.90;;;;;;;8.89;nan;100028.22;5093167;28;20031;-69
2023/04/16 00:50:45;;;;;;;7.00;3.65;;;;;;;8.93;nan;100031.19;5093978;28;20028;-67
2023/04/16 00:53:10;;;;;;;6.15;3.95;;;;;;;8.92;nan;100042.75;5096620;28;20036;-69
2023/04/16 00:55:36;;;;;;;6.30;3.78;;;;;;;8.93;nan;100039.91;5096517;28;20026;-68
2023/04/16 00:58:02;;;;;;;9.88;3.78;;;;;;;8.88;nan;100038.94;5115010;27;20100;-68
2023/04/16 01:00:28;;;;;;;7.60;4.28;;;;;;;8.78;nan;100031.59;5096792;27;20032;-67
2023/04/16 01:02:54;;;;;;;7.55;4.47;;;;;;;8.81;nan;100031.19;5097142;28;20082;-69
2023/04/16 01:05:20;;;;;;;8.95;3.83;;;;;;;8.86;nan;100041.81;5113783;28;20032;-68
2023/04/16 01:07:45;;;;;;;6.65;3.70;;;;;;;8.78;nan;100034.22;5113672;28;20046;-68
2023/04/16 01:10:11;;;;;;;6.80;4.22;;;;;;;8.75;nan;100031.25;5112543;28;20027;-67
2023/04/16 01:12:36;;;;;;;6.90;3.88;;;;;;;8.75;nan;100031.25;5114127;27;20477;-68
2023/04/16 01:15:01;;;;;;;7.05;3.83;;;;;;;8.51;nan;100007.53;5117060;27;20030;-68
2023/04/16 01:17:27;;;;;;;9.88;4.07;;;;;;;8.70;nan;100045.84;5115393;27;20041;-68
2023/04/16 01:19:52;;;;;;;6.65;3.78;;;;;;;8.56;nan;100026.03;5120811;27;20035;-68
2023/04/16 01:22:18;;;;;;;6.68;3.50;;;;;;;8.54;nan;100032.50;5107001;27;20182;-68
2023/04/16 01:24:44;;;;;;;10.43;4.72;;;;;;;8.59;nan;100040.53;5116272;27;20019;-68
2023/04/16 01:27:10;;;;;;;7.28;4.00;;;;;;;8.47;nan;100027.34;5101056;27;20657;-68
2023/04/16 01:29:35;;;;;;;11.05;4.20;;;;;;;8.53;nan;100039.59;5116063;27;20102;-68
2023/04/16 01:32:00;;;;;;;7.80;4.43;;;;;;;8.45;nan;100040.69;5118121;27;20393;-68
2023/04/16 01:34:26;;;;;;;9.35;4.22;;;;;;;8.41;nan;100044.78;5116500;27;20160;-68
2023/04/16 01:36:51;;;;;;;6.32;4.40;;;;;;;8.38;nan;100044.38;5102565;27;20401;-68
2023/04/16 01:39:18;;;;;;;7.47;4.45;;;;;;;8.33;nan;100042.38;5119088;27;20023;-68
2023/04/16 01:41:43;;;;;;;9.88;4.50;;;;;;;8.27;nan;100044.06;5115098;27;20630;-68
2023/04/16 01:44:09;;;;;;;7.47;4.57;;;;;;;8.25;nan;100046.13;5107642;27;20120;-68
2023/04/16 01:46:36;;;;;;;9.13;4.30;;;;;;;8.18;nan;100040.13;5099893;27;20034;-67
2023/04/16 01:49:03;;;;;;;6.97;4.10;;;;;;;8.24;nan;100046.34;5116657;27;20172;-67
2023/04/16 01:51:28;;;;;;;7.88;4.63;;;;;;;8.21;nan;100034.47;5115165;27;20023;-67
2023/04/16 01:53:54;;;;;;;9.60;4.40;;;;;;;8.17;nan;100033.28;5116122;27;20519;-68
2023/04/16 01:56:20;;;;;;;6.72;3.90;;;;;;;8.17;nan;100030.69;5117343;27;20051;-68
2023/04/16 01:58:46;;;;;;;9.15;4.15;;;;;;;8.21;nan;100031.03;5116515;27;20031;-67
2023/04/16 02:01:12;;;;;;;7.93;4.20;;;;;;;8.27;nan;100038.84;5118119;27;20019;-68
2023/04/16 02:03:37;;;;;;;5.72;3.60;;;;;;;8.13;nan;100018.22;5115758;27;20023;-68
2023/04/16 02:06:03;;;;;;;5.55;3.47;;;;;;;8.34;nan;100053.72;5116269;27;20028;-67
2023/04/16 02:08:28;;;;;;;6.97;3.70;;;;;;;8.31;nan;100042.63;5115936;27;20024;-68
2023/04/16 02:10:55;;;;;;;7.28;3.60;;;;;;;8.37;nan;100050.66;5117535;27;20031;-67
2023/04/16 02:13:21;;;;;;;4.97;3.05;;;;;;;8.36;nan;100046.44;5116942;27;20027;-67
2023/04/16 02:15:47;;;;;;;5.32;3.40;;;;;;;8.41;nan;100043.97;5115727;27;20689;-67
2023/04/16 02:18:13;;;;;;;8.88;3.40;;;;;;;8.33;nan;100026.66;5114866;27;20015;-67
2023/04/16 02:20:40;;;;;;;6.60;3.65;;;;;;;8.40;nan;100031.84;5116988;27;20042;-67
2023/04/16 02:23:05;;;;;;;6.93;3.33;;;;;;;8.45;nan;100040.69;5117869;27;20027;-69
2023/04/16 02:25:31;;;;;;;6.65;2.90;;;;;;;8.48;nan;100029.75;5117591;27;20578;-68
2023/04/16 02:27:57;;;;;;;6.22;3.13;;;;;;;8.48;nan;100035.00;5098326;27;20653;-67
2023/04/16 02:30:23;;;;;;;6.63;3.30;;;;;;;8.47;nan;100030.75;5118649;27;20038;-67
2023/04/16 02:32:48;;;;;;;5.35;3.10;;;;;;;;;;5116860;27;20027;-67
2023/04/16 02:35:13;;;;;;;5.82;2.83;;;;;;;;;;5101586;27;20030;-69
2023/04/16 02:37:39;;;;;;;5.00;3.13;;;;;;;;;;5099440;27;20023;-68
2023/04/16 02:40:05;;;;;;;6.22;2.88;;;;;;;;;;5117275;27;20712;-67
2023/04/16 02:42:30;;;;;;;5.85;2.72;;;;;;;;;;5115168;27;20035;-68
2023/04/16 02:44:55;;;;;;;9.03;4.00;;;;;;;;;;5112981;27;20046;-69
2023/04/16 02:47:20;;;;;;;5.37;3.20;;;;;;;;;;5102342;27;20030;-69
2023/04/16 02:49:46;;;;;;;4.37;2.90;;;;;;;;;;5118173;27;20032;-67
2023/04/16 02:52:11;;;;;;;6.17;2.97;;;;;;;;;;5118797;27;20283;-67
2023/04/16 02:54:36;;;;;;;5.20;2.80;;;;;;;;;;5116907;27;20276;-69
2023/04/16 02:57:02;;;;;;;5.67;3.07;;;;;;;;;;5117335;27;20666;-64
2023/04/16 02:59:27;;;;;;;5.68;3.10;;;;;;;;;;5097956;27;20827;-66
2023/04/16 03:01:52;;;;;;;6.47;3.00;;;;;;;;;;5115576;27;20396;-66
2023/04/16 03:04:18;;;;;;;5.78;2.80;;;;;;;;;;5118414;27;20024;-68
2023/04/16 03:06:43;;;;;;;4.70;2.40;;;;;;;;;;5117714;27;20020;-65
2023/04/16 03:09:08;;;;;;;3.67;2.53;;;;;;;;;;5098074;27;20114;-64
2023/04/16 03:11:34;;;;;;;6.05;2.35;;;;;;;;;;5116373;27;20294;-67
2023/04/16 03:13:59;;;;;;;4.53;2.45;;;;;;;;;;5115714;27;20035;-65
2023/04/16 03:16:25;;;;;;;4.63;2.58;;;;;;;;;;5115157;27;20034;-68
2023/04/16 03:18:50;;;;;;;4.18;2.20;;;;;;;;;;5115420;27;20069;-66
2023/04/16 03:21:15;;;;;;;4.85;2.90;;;;;;;;;;5112835;27;20377;-67
2023/04/16 03:23:40;;;;;;;4.53;2.60;;;;;;;;;;5116032;27;20050;-66
2023/04/16 03:26:06;;;;;;;5.88;2.65;;;;;;;;;;5116310;27;20015;-65
2023/04/16 03:28:31;;;;;;;5.23;2.43;;;;;;;;;;5117423;27;20034;-66
2023/04/16 03:30:56;;;;;;;3.73;2.20;;;;;;;;;;5117005;27;20405;-67
2023/04/16 03:33:21;;;;;;;8.13;2.53;;;;;;;;;;5115199;27;20352;-69
2023/04/16 03:35:53;;;;;;;3.50;2.15;;;;;;;;;;5099019;27;20267;-66
2023/04/16 03:38:18;;;;;;;4.28;2.40;;;;;;;;;;5117140;27;20124;-66
2023/04/16 03:40:44;;;;;;;6.50;2.55;;;;;;;;;;5106624;27;20065;-66
2023/04/16 03:43:09;;;;;;;4.77;2.43;;;;;;;;;;5103533;27;20111;-67
2023/04/16 03:45:34;;;;;;;3.88;2.60;;;;;;;;;;5100331;27;20638;-66
2023/04/16 03:48:00;;;;;;;9.03;2.67;;;;;;;;;;5114730;27;20100;-66
2023/04/16 03:50:25;;;;;;;4.63;2.15;;;;;;;;;;5116832;27;20775;-68
2023/04/16 03:52:51;;;;;;;4.82;2.60;;;;;;;;;;5115632;27;20474;-69
2023/04/16 03:55:16;;;;;;;3.83;2.23;;;;;;;;;;5113085;27;20022;-69
2023/04/16 03:57:41;;;;;;;5.00;2.63;;;;;;;;;;5113378;27;20042;-68
2023/04/16 04:00:07;;;;;;;5.47;2.60;;;;;;;;;;5115583;27;20305;-69
2023/04/16 04:02:32;;;;;;;4.68;2.40;;;;;;;;;;5115976;27;20035;-69
2023/04/16 04:04:58;;;;;;;5.40;2.17;;;;;;;;;;5114042;27;20031;-68
2023/04/16 04:07:23;;;;;;;4.33;2.40;;;;;;;;;;5117182;27;20271;-68
2023/04/16 04:09:48;;;;;;;6.93;2.40;;;;;;;;;;5117146;27;20043;-69
2023/04/16 04:12:13;;;;;;;5.23;2.80;;;;;;;;;;5112744;27;20401;-68
2023/04/16 04:14:39;;;;;;;5.67;3.40;;;;;;;;;;5099419;27;20271;-69
2023/04/16 04:17:07;;;;;;;6.40;3.55;;;;;;;;;;5116154;27;20027;-66
2023/04/16 04:19:32;;;;;;;6.65;3.30;;;;;;;;;;5117469;27;20027;-68
2023/04/16 04:21:58;;;;;;;6.55;3.70;;;;;;;;;;5097486;27;20031;-67
2023/04/16 04:24:23;;;;;;;6.57;3.63;;;;;;;;;;5095847;28;20544;-66
2023/04/16 04:26:48;;;;;;;5.83;3.80;;;;;;;;;;5093926;27;20059;-69
2023/04/16 04:29:14;;;;;;;9.70;4.10;;;;;;;;;;5117693;27;20271;-65
2023/04/16 04:31:39;;;;;;;7.78;4.28;;;;;;;;;;5097083;27;20150;-66
2023/04/16 04:34:05;;;;;;;6.40;3.88;;;;;;;;;;5117257;27;20028;-68
2023/04/16 04:36:31;;;;;;;6.55;3.80;;;;;;;;;;5114450;27;20027;-69
2023/04/16 04:38:56;;;;;;;7.28;4.03;;;;;;;;;;5115339;27;20392;-65
2023/04/16 04:41:22;;;;;;;6.32;3.58;;;;;;;;;;5084384;28;20031;-66
2023/04/16 04:43:50;;;;;;;8.68;4.13;;;;;;;;;;5100074;28;20033;-67
2023/04/16 04:46:15;;;;;;;8.52;4.03;;;;;;;;;;5113875;27;20027;-65
2023/04/16 04:48:40;;;;;;;8.55;3.97;;;;;;;;;;5101199;27;20027;-66
2023/04/16 04:51:06;;;;;;;7.53;4.15;;;;;;;;;;5113036;27;20047;-66
2023/04/16 04:53:31;;;;;;;7.63;3.97;;;;;;;;;;5092958;27;20034;-68
2023/04/16 04:55:57;;;;;;;10.30;4.20;;;;;;;;;;5115945;27;20046;-68
2023/04/16 04:58:26;;;;;;;8.95;4.10;;;;;;;;;;5080164;28;22469;-67
2023/04/16 05:00:51;;;;;;;7.35;4.40;;;;;;;;;;5075586;28;20039;-69
2023/04/16 05:03:20;;;;;;;8.13;4.60;;;;;;;;;;5095208;28;20038;-70
2023/04/16 05:05:45;;;;;;;7.60;4.18;;;;;;;;;;5084743;28;20272;-68
2023/04/16 05:08:10;;;;;;;7.00;3.93;;;;;;;;;;5096522;28;20574;-69
2023/04/16 05:10:36;;;;;;;7.17;4.00;;;;;;;;;;5082676;28;20280;-70
2023/04/16 05:13:01;;;;;;;9.50;5.00;;;;;;;;;;5099495;28;20126;-70
2023/04/16 05:15:26;;;;;;;7.80;3.47;;;;;;;;;;5078435;28;20101;-69
2023/04/16 05:17:52;;;;;;;6.63;4.07;;;;;;;;;;5076522;28;20052;-69
2023/04/16 05:20:17;;;;;;;8.63;4.37;;;;;;;;;;5094097;28;20507;-69
2023/04/16 05:22:42;;;;;;;7.63;3.67;;;;;;;;;;5094110;28;20284;-69
2023/04/16 05:25:08;;;;;;;6.67;3.80;;;;;;;;;;5090068;28;20377;-68
2023/04/16 05:27:33;;;;;;;5.30;3.30;;;;;;;;;;5080069;28;20690;-68
2023/04/16 05:29:58;;;;;;;7.57;3.90;;;;;;;;;;5094261;28;20032;-68
2023/04/16 05:32:25;;;;;;;5.73;3.50;;;;;;;;;;5097631;28;20359;-68
2023/04/16 05:34:50;;;;;;;5.40;3.00;;;;;;;;;;5092410;28;20364;-70
2023/04/16 05:37:15;;;;;;;5.60;3.30;;;;;;;;;;5092344;28;20363;-70
2023/04/16 05:39:41;;;;;;;11.97;5.27;;;;;;;;;;5092031;28;20492;-68
2023/04/16 05:42:06;;;;;;;6.00;3.37;;;;;;;;;;5084981;28;20051;-68
2023/04/16 05:44:31;;;;;;;6.83;3.53;;;;;;;;;;5094229;28;20081;-69
2023/04/16 05:46:56;;;;;;;9.90;3.50;;;;;;;;;;5093747;28;20282;-68
2023/04/16 05:49:21;;;;;;;6.03;2.97;;;;;;;;;;5096751;28;20673;-68
2023/04/16 05:51:47;;;;;;;5.07;2.80;;;;;;;;;;5093907;28;20111;-69
2023/04/16 05:54:12;;;;;;;4.40;2.88;;;;;;;;;;5084843;28;20280;-68
2023/04/16 05:56:40;;;;;;;4.50;2.50;;;;;;;;;;5092045;28;20100;-65
2023/04/16 05:59:05;;;;;;;4.72;2.63;;;;;;;;;;5085858;28;20291;-65
2023/04/16 06:01:34;;;;;;;4.77;2.40;;;;;;;;;;5097565;27;20035;-67
2023/04/16 06:03:59;;;;;;;3.95;2.50;;;;;;;;;;5095191;28;20280;-67
2023/04/16 06:06:26;;;;;;;6.22;2.83;;;;;;;;;;5080968;28;20035;-68
2023/04/16 06:08:51;;;;;;;4.85;2.80;;;;;;;;;;5097598;27;20102;-68
2023/04/16 06:11:16;;;;;;;5.00;2.77;;;;;;;;;;5096980;28;20114;-68
2023/04/16 06:13:41;;;;;;;6.10;3.10;;;;;;;;;;5098368;28;20773;-68
2023/04/16 06:16:07;;;;;;;6.70;3.10;;;;;;;;;;5096686;27;20316;-67
2023/04/16 06:18:32;;;;;;;5.20;3.20;;;;;;;;;;5096145;28;20031;-67
2023/04/16 06:20:58;;;;;;;7.50;3.33;;;;;;;;;;5092609;27;20418;-68
2023/04/16 06:23:23;;;;;;;6.07;3.45;;;;;;;;;;5096793;28;20032;-68
2023/04/16 06:25:48;;;;;;;5.95;3.42;;;;;;;;;;5097868;28;20119;-68
2023/04/16 06:28:14;;;;;;;6.23;3.40;;;;;;;;;;5096480;28;20020;-67
2023/04/16 06:30:39;;;;;;;6.75;3.25;;;;;;;;;;5097014;28;20330;-68
2023/04/16 06:33:05;;;;;;;5.95;3.42;;;;;;;;;;5096521;28;20383;-68
2023/04/16 06:35:30;;;;;;;7.20;3.50;;;;;;;;;;5082881;28;20142;-67
2023/04/16 06:37:55;;;;;;;7.13;3.30;;;;;;;10.51;nan;100162.25;5081747;28;20085;-69
2023/04/16 06:40:21;;;;;;;6.07;3.20;;;;;;;;;;5070397;28;20497;-70
2023/04/16 06:42:46;;;;;;;5.32;3.00;;;;;;;;;;5078835;28;20040;-69
2023/04/16 06:45:12;;;;;;;4.60;2.87;;;;;;;;;;5078075;28;20024;-69
2023/04/16 06:47:38;;;;;;;7.55;3.05;;;;;;;;;;5079149;28;20283;-69
2023/04/16 06:50:03;;;;;;;7.10;2.80;;;;;;;;;;5098006;28;20028;-66
2023/04/16 06:52:28;;;;;;;4.22;2.22;;;;;;;;;;5093094;28;20276;-68
2023/04/16 06:54:54;;;;;;;3.67;2.40;;;;;;;;;;5072599;28;20027;-68
2023/04/16 06:57:19;;;;;;;5.65;2.55;;;;;;;;;;5093739;28;20079;-68
2023/04/16 06:59:44;;;;;;;4.57;2.40;;;;;;;;;;5091720;28;20059;-68
2023/04/16 07:02:09;;;;;;;4.50;2.43;;;;;;;;;;5091200;28;20327;-68
2023/04/16 07:04:35;;;;;;;4.00;2.20;;;;;;;;;;5076431;28;20062;-68
2023/04/16 07:07:00;;;;;;;3.53;2.13;;;;;;;;;;5077337;28;20473;-70
2023/04/16 07:09:26;;;;;;;4.75;2.75;;;;;;;;;;5079162;28;20043;-68
2023/04/16 07:11:51;;;;;;;3.30;2.28;;;;;;;;;;5095376;27;20031;-68
2023/04/16 07:14:16;;;;;;;3.40;2.10;;;;;;;;;;5090467;27;20148;-68
2023/04/16 07:16:42;;;;;;;4.05;2.45;;;;;;;;;;5079125;28;20011;-70
2023/04/16 07:19:07;;;;;;;4.25;2.30;;;;;;;;;;5077820;28;20028;-68
2023/04/16 07:21:32;;;;;;;4.00;2.28;;;;;;;;;;5082928;28;20051;-69
2023/04/16 07:23:58;;;;;;;4.30;2.40;;;;;;;;;;5078724;28;20035;-69
2023/04/16 07:26:23;;;;;;;4.63;2.58;;;;;;;;;;5098392;28;20020;-69
2023/04/16 07:28:48;;;;;;;3.78;2.58;;;;;;;;;;5079367;28;20508;-68
2023/04/16 07:31:14;;;;;;;5.78;1.90;;;;;;;;;;5076014;28;20020;-68
2023/04/16 07:33:39;;;;;;;4.28;2.17;;;;;;;;;;5075874;28;20024;-69
2023/04/16 07:36:05;;;;;;;4.40;2.78;;;;;;;;;;5079006;28;20122;-68
2023/04/16 07:38:30;;;;;;;4.90;2.90;;;;;;;;;;5093465;27;20020;-68
2023/04/16 07:40:55;;;;;;;3.60;2.37;;;;;;;;;;5081055;27;20459;-70
2023/04/16 07:43:21;;;;;;;5.35;2.65;;;;;;;;;;5083900;28;20023;-68
2023/04/16 07:45:46;;;;;;;5.07;2.40;;;;;;;;;;5085869;27;20027;-73
2023/04/16 07:48:11;;;;;;;6.75;2.42;;;;;;;;;;5080501;28;20024;-69
2023/04/16 07:50:37;;;;;;;4.68;2.60;;;;;;;;;;5083200;28;20032;-69
2023/04/16 07:53:02;;;;;;;4.22;2.30;;;;;;;;;;5078632;28;20073;-69
2023/04/16 07:55:28;;;;;;;7.55;2.40;;;;;;;;;;5095264;28;20030;-68
2023/04/16 07:57:53;;;;;;;5.97;2.42;;;;;;;;;;5077010;28;20312;-68
2023/04/16 08:00:19;;;;;;;6.18;2.25;;;;;;;;;;5081031;27;20027;-69
2023/04/16 08:02:44;;;;;;;4.75;3.03;;;;;;;;;;5095774;28;20417;-69
2023/04/16 08:05:11;;;;;;;5.80;2.20;;;;;;;;;;5077280;28;20027;-69
2023/04/16 08:07:36;;;;;;;6.47;2.60;;;;;;;;;;5078927;28;20080;-69
2023/04/16 08:10:02;;;;;;;4.63;2.17;;;;;;;;;;5081411;28;20028;-68
2023/04/16 08:12:28;;;;;;;3.58;2.20;;;;;;;;;;5093638;28;20444;-68
2023/04/16 08:14:53;;;;;;;4.05;2.15;;;;;;;;;;5098669;28;20049;-68
2023/04/16 08:17:18;;;;;;;5.87;2.63;;;;;;;;;;5082905;27;20036;-69
2023/04/16 08:19:44;;;;;;;4.67;2.23;;;;;;;;;;5094207;28;20376;-70
2023/04/16 08:22:10;;;;;;;4.18;2.13;;;;;;;;;;5092550;28;20036;-69
2023/04/16 08:24:35;;;;;;;4.15;2.30;;;;;;;;;;5091497;27;20630;-70
2023/04/16 08:27:01;;;;;;;3.87;2.10;;;;;;;;;;5094370;27;20098;-71
2023/04/16 08:29:26;;;;;;;4.57;2.10;;;;;;;;;;5079274;28;20291;-70
2023/04/16 08:31:52;;;;;;;4.05;2.00;;;;;;;;;;5075748;28;20645;-71
2023/04/16 08:34:17;;;;;;;5.88;2.00;;;;;;;;;;5094650;27;20019;-70
2023/04/16 08:36:42;;;;;;;3.88;1.92;;;;;;;;;;5093408;28;20131;-70
2023/04/16 08:39:08;;;;;;;3.03;2.00;;;;;;;;;;5092078;27;20050;-70
2023/04/16 08:41:35;;;;;;;3.30;2.07;;;;;;;;;;5091321;28;20081;-69
2023/04/16 08:44:02;;;;;;;6.07;2.10;;;;;;;;;;5093466;27;20740;-70
2023/04/16 08:46:28;;;;;;;3.33;1.98;;;;;;;;;;5092712;28;20039;-69
2023/04/16 08:48:56;;;;;;;4.38;2.00;;;;;;;;;;5094161;27;20101;-70
2023/04/16 08:51:22;;;;;;;3.67;1.80;;;;;;;;;;5094930;28;20046;-70
2023/04/16 08:54:03;;;;;;;4.32;2.00;;;;;;;;;;5093856;28;20521;-68
2023/04/16 08:56:30;;;;;;;3.67;1.90;;;;;;;;;;5089302;28;20131;-67
2023/04/16 08:58:57;;;;;;;2.85;1.90;;;;;;;;;;5090759;28;20030;-70
2023/04/16 09:01:23;;;;;;;4.20;2.30;;;;;;;;;;5091566;28;20051;-72
2023/04/16 09:03:48;;;;;;;4.90;2.47;;;;;;;;;;5092650;28;20028;-69
2023/04/16 09:06:15;;;;;;;6.32;2.22;;;;;;;;;;5080381;28;20439;-69
2023/04/16 09:08:42;;;;;;;3.65;2.55;;;;;;;;;;5089360;28;20024;-70
2023/04/16 09:11:08;;;;;;;4.97;2.67;;;;;;;;;;5073737;28;20513;-70
2023/04/16 09:13:34;;;;;;;4.95;2.67;;;;;;;13.87;nan;100186.19;5094473;28;20023;-70
2023/04/16 09:15:59;;;;;;;5.40;2.45;;;;;;;;;;5091298;28;20028;-69
2023/04/16 09:18:26;;;;;;;3.85;2.45;;;;;;;;;;5093895;28;20044;-69
2023/04/16 09:20:52;;;;;;;3.97;2.42;;;;;;;;;;5092063;28;20032;-72
2023/04/16 09:23:17;;;;;;;4.95;2.65;;;;;;;;;;5094141;28;20043;-68
2023/04/16 09:25:42;;;;;;;5.17;3.10;;;;;;;;;;5092921;28;20020;-65
2023/04/16 09:28:08;;;;;;;3.60;2.22;;;;;;;;;;5078311;28;20020;-68
2023/04/16 09:30:34;;;;;;;6.03;2.60;;;;;;;;;;5077437;28;20168;-69
2023/04/16 09:33:21;;;;;;;5.00;2.40;;;;;;;;;;5094894;28;20089;-67
2023/04/16 09:35:48;;;;;;;9.23;3.00;;;;;;;14.23;nan;100136.94;5084362;28;20478;-67
2023/04/16 09:38:14;;;;;;;5.63;2.60;;;;;;;;;;5096686;27;20135;-67
2023/04/16 09:40:39;;;;;;;5.13;2.30;;;;;;;;;;5101692;28;20580;-68
2023/04/16 09:43:15;;;;;;;4.27;2.60;;;;;;;;;;5096593;28;20023;-67
2023/04/16 09:45:47;;;;;;;4.03;2.50;;;;;;;;;;5098092;28;20294;-66
2023/04/16 09:48:12;;;;;;;6.18;2.42;;;;;;;;;;5079197;28;20024;-67
2023/04/16 09:50:38;;;;;;;6.23;2.90;;;;;;;;;;5098480;27;20524;-68
2023/04/16 09:53:03;;;;;;;5.93;2.67;;;;;;;;;;5083384;28;20384;-68
2023/04/16 09:55:28;;;;;;;4.13;2.58;;;;;;;;;;5099827;28;20051;-68
2023/04/16 09:58:00;;;;;;;4.53;3.13;;;;;;;14.43;nan;100180.50;5092239;27;20043;-68
2023/04/16 10:00:27;;;;;;;5.85;2.63;;;;;;;;;;5078536;28;20291;-68
2023/04/16 10:03:05;;;;;;;5.00;2.60;;;;;;;;;;5080124;28;21608;-69
2023/04/16 10:05:31;;;;;;;6.63;3.03;;;;;;;;;;5096967;28;20034;-66
2023/04/16 10:07:58;;;;;;;4.45;2.55;;;;;;;;;;5083077;28;20794;-66
2023/04/16 10:10:26;;;;;;;6.45;2.65;;;;;;;;;;5084018;28;20115;-67
2023/04/16 10:12:52;;;;;;;5.15;3.05;;;;;;;;;;5095501;28;20102;-68
2023/04/16 10:15:18;;;;;;;4.80;2.60;;;;;;;;;;5079639;28;20115;-69
2023/04/16 10:17:44;;;;;;;6.05;2.70;;;;;;;;;;5096548;28;20119;-68
2023/04/16 10:20:09;;;;;;;5.53;2.90;;;;;;;;;;5083528;28;20027;-72
2023/04/16 10:22:35;;;;;;;4.40;2.33;;;;;;;;;;5098244;28;20019;-65
2023/04/16 10:25:01;;;;;;;5.95;2.95;;;;;;;;;;5078600;28;20036;-66
2023/04/16 10:27:29;;;;;;;4.63;2.20;;;;;;;;;;5096488;28;20024;-66
2023/04/16 10:29:55;;;;;;;4.22;2.60;;;;;;;;;;5096551;28;20744;-67
2023/04/16 10:32:21;;;;;;;5.82;2.60;;;;;;;;;;5094400;28;20054;-66
2023/04/16 10:34:46;;;;;;;3.58;2.35;;;;;;;;;;5096712;28;20031;-67
2023/04/16 10:37:12;;;;;;;4.05;2.42;;;;;;;;;;5097252;28;20028;-69
2023/04/16 10:39:37;;;;;;;5.15;2.45;;;;;;;;;;5077544;28;20034;-69
2023/04/16 10:42:11;;;;;;;5.00;2.50;;;;;;;;;;5085817;28;20100;-67
2023/04/16 10:44:38;;;;;;;4.30;2.30;;;;;;;;;;5097195;27;20419;-70
2023/04/16 10:47:12;;;;;;;6.15;2.35;;;;;;;;;;5094215;28;20031;-66
2023/04/16 10:49:38;;;;;;;5.80;2.40;;;;;;;;;;5094381;28;20020;-68
2023/04/16 10:52:16;;;;;;;3.92;2.22;;;;;;;;;;5098242;28;20085;-69
2023/04/16 10:54:41;;;;;;;6.43;2.70;;;;;;;;;;5077164;28;20383;-67
2023/04/16 10:57:16;;;;;;;7.05;2.47;;;;;;;;;;5096023;28;20055;-68
2023/04/16 10:59:42;;;;;;;4.15;2.38;;;;;;;;;;5088718;28;20027;-69
2023/04/16 11:02:12;;;;;;;6.63;2.33;;;;;;;13.95;nan;100161.88;5083171;28;20031;-67
2023/04/16 11:04:38;;;;;;;5.03;1.98;;;;;;;;;;5093308;28;20390;-68
2023/04/16 11:07:04;;;;;;;6.28;2.28;;;;;;;;;;5094261;28;20102;-68
2023/04/16 11:09:48;;;;;;;5.90;3.20;;;;;;;;;;5077023;28;20553;-68
2023/04/16 11:12:17;;;;;;;5.55;3.47;;;;;;;;;;5092735;28;20028;-68
2023/04/16 11:14:45;;;;;;;10.00;4.95;;;;;;;;;;5094866;28;20030;-68
2023/04/16 11:17:11;;;;;;;11.30;5.70;;;;;;;;;;5081826;28;20036;-68
2023/04/16 11:19:37;;;;;;;27.10;13.30;;;;;;;;;;5077631;28;20035;-69
2023/04/16 11:22:02;;;;;;;10.77;5.80;;;;;;;;;;5080204;28;20036;-66
2023/04/16 11:24:28;;;;;;;13.32;6.13;;;;;;;;;;5096246;28;20784;-70
2023/04/16 11:26:54;;;;;;;20.15;7.70;;;;;;;;;;5091906;28;20027;-69
2023/04/16 11:29:19;;;;;;;14.65;4.93;;;;;;;;;;5096851;27;20824;-69
2023/04/16 11:31:51;;;;;;;3.85;2.40;;;;;;;;;;5089099;28;20356;-69
2023/04/16 11:34:17;;;;;;;3.80;2.15;;;;;;;;;;5094788;28;20039;-69
2023/04/16 11:36:43;;;;;;;3.63;2.22;;;;;;;;;;5093124;28;20359;-67
2023/04/16 11:39:08;;;;;;;4.90;2.50;;;;;;;;;;5074615;28;20527;-68
2023/04/16 11:41:33;;;;;;;4.23;2.33;;;;;;;;;;5077047;28;20031;-68
2023/04/16 11:43:59;;;;;;;3.70;2.20;;;;;;;;;;5094776;28;20584;-69
2023/04/16 11:46:36;;;;;;;3.72;2.20;;;;;;;;;;5093160;28;20540;-66
2023/04/16 11:49:02;;;;;;;7.80;2.38;;;;;;;;;;5090882;28;20757;-67
2023/04/16 11:51:28;;;;;;;6.13;3.90;;;;;;;;;;5092629;28;20027;-66
2023/04/16 11:53:54;;;;;;;4.70;3.05;;;;;;;;;;5094407;28;20058;-72
2023/04/16 11:56:33;;;;;;;7.63;3.47;;;;;;;;;;5094165;28;20044;-66
2023/04/16 11:59:17;;;;;;;4.72;3.03;;;;;;;;;;5075096;28;20036;-66
2023/04/16 12:01:48;;;;;;;3.42;2.38;;;;;;;;;;5080530;28;20529;-72
2023/04/16 12:04:14;;;;;;;2.50;1.80;;;;;;;;;;5093829;28;20102;-70
2023/04/16 12:06:40;;;;;;;2.83;1.90;;;;;;;;;;5094689;28;20181;-72
2023/04/16 12:09:21;;;;;;;3.50;1.85;;;;;;;;;;5091667;28;20107;-72
2023/04/16 12:11:46;;;;;;;3.80;1.80;;;;;;;;;;5089705;28;20028;-72
2023/04/16 12:14:12;;;;;;;2.53;1.70;;;;;;;;;;5077858;28;20039;-72
2023/04/16 12:16:37;;;;;;;3.05;1.67;;;;;;;;;;5091104;27;20042;-71
2023/04/16 12:19:03;;;;;;;3.58;1.88;;;;;;;;;;5090736;28;20622;-72
2023/04/16 12:21:36;;;;;;;4.40;1.98;;;;;;;;;;5093703;28;20549;-72
2023/04/16 12:24:01;;;;;;;2.08;1.40;;;;;;;;;;5074988;28;20039;-71
2023/04/16 12:26:26;;;;;;;2.50;1.60;;;;;;;;;;5093629;28;20590;-72
2023/04/16 12:28:51;;;;;;;3.43;2.00;;;;;;;;;;5093918;28;20324;-71
2023/04/16 12:31:19;;;;;;;3.13;1.90;;;;;;;;;;5091034;28;20629;-70
2023/04/16 12:34:00;;;;;;;3.28;2.22;;;;;;;;;;5073342;28;20389;-72
2023/04/16 12:36:25;;;;;;;3.53;2.13;;;;;;;;;;5094482;28;20027;-71
2023/04/16 12:38:50;;;;;;;8.37;2.10;;;;;;;;;;5076671;28;20042;-71
2023/04/16 12:41:16;;;;;;;2.90;2.00;;;;;;;;;;5092257;28;21013;-71
2023/04/16 12:43:41;;;;;;;3.40;2.00;;;;;;;;;;5096150;27;20310;-71
2023/04/16 12:46:06;;;;;;;3.43;2.33;;;;;;;;;;5098338;28;20951;-72
2023/04/16 12:48:32;;;;;;;3.83;2.00;;;;;;;;;;5093308;28;20277;-66
2023/04/16 12:50:57;;;;;;;3.08;2.30;;;;;;;;;;5092721;27;20027;-74
2023/04/16 12:53:23;;;;;;;4.40;2.30;;;;;;;;;;5079935;28;20035;-75
2023/04/16 12:55:48;;;;;;;3.60;2.33;;;;;;;13.91;nan;100117.66;5098799;28;20283;-74
2023/04/16 12:58:13;;;;;;;3.03;2.25;;;;;;;;;;5058331;28;20280;-75
2023/04/16 13:00:39;;;;;;;3.30;2.30;;;;;;;;;;5098780;28;20040;-71
2023/04/16 13:03:04;;;;;;;3.15;2.33;;;;;;;;;;5096511;27;20023;-70
2023/04/16 13:05:29;;;;;;;5.13;2.67;;;;;;;;;;5094689;28;20520;-70
2023/04/16 13:07:55;;;;;;;3.00;2.50;;;;;;;13.78;nan;100156.72;5096130;28;20087;-71
2023/04/16 13:10:20;;;;;;;2.90;2.38;;;;;;;;;;5075371;28;20035;-71
2023/04/16 13:12:46;;;;;;;4.13;2.40;;;;;;;;;;5096112;28;20092;-71
2023/04/16 13:15:11;;;;;;;3.87;2.37;;;;;;;;;;5074860;28;20077;-71
2023/04/16 13:17:36;;;;;;;3.65;2.00;;;;;;;;;;5093602;28;20284;-71
2023/04/16 13:20:02;;;;;;;3.43;2.10;;;;;;;;;;5094098;28;20035;-70
2023/04/16 13:22:27;;;;;;;3.83;2.40;;;;;;;;;;5095405;28;20707;-74
2023/04/16 13:24:52;;;;;;;7.23;2.87;;;;;;;;;;5092907;28;20030;-74
2023/04/16 13:27:17;;;;;;;6.00;2.40;;;;;;;;;;5082406;28;20638;-74
2023/04/16 13:29:43;;;;;;;5.33;2.53;;;;;;;;;;5079986;28;20028;-74
2023/04/16 13:32:09;;;;;;;6.90;2.80;;;;;;;;;;5078587;28;20276;-71
2023/04/16 13:34:34;;;;;;;4.38;2.50;;;;;;;;;;5092919;28;20511;-71
2023/04/16 13:36:59;;;;;;;6.22;2.80;;;;;;;;;;5092585;28;20083;-73
2023/04/16 13:39:25;;;;;;;4.63;3.00;;;;;;;;;;5096362;28;20035;-74
2023/04/16 13:41:52;;;;;;;4.73;3.10;;;;;;;;;;5080744;28;20796;-74
2023/04/16 13:44:18;;;;;;;4.90;2.90;;;;;;;;;;5079141;28;20280;-74
2023/04/16 13:46:46;;;;;;;4.05;2.90;;;;;;;;;;5093430;28;20024;-75
2023/04/16 13:49:11;;;;;;;4.00;2.95;;;;;;;;;;5079735;28;20012;-74
2023/04/16 13:51:36;;;;;;;8.83;3.00;;;;;;;;;;5096634;28;20785;-74
2023/04/16 13:54:02;;;;;;;4.67;2.67;;;;;;;;;;5077879;28;20068;-74
2023/04/16 13:56:27;;;;;;;5.00;2.63;;;;;;;;;;5095814;28;20088;-75